sensor_id;sensor_type;location;lat;lon;timestamp;pressure;altitude;pressure_sealevel;temperature;humidity
55347;BME280;41218;55.700;38.270;2023-07-31T00:02:42;99060.03;;;14.14;66.73
55347;BME280;41218;55.700;38.270;2023-07-31T00:07:43;99068.41;;;14.10;66.49
55347;BME280;41218;55.700;38.270;2023-07-31T00:12:45;99053.81;;;13.99;66.78
55347;BME280;41218;55.700;38.270;2023-07-31T00:17:45;99052.25;;;13.98;66.84
55347;BME280;41218;55.700;38.270;2023-07-31T00:22:46;99045.16;;;13.90;67.00
55347;BME280;41218;55.700;38.270;2023-07-31T00:27:46;99049.50;;;13.91;66.92
55347;BME280;41218;55.700;38.270;2023-07-31T00:32:47;99042.44;;;13.82;66.89
55347;BME280;41218;55.700;38.270;2023-07-31T00:37:47;99046.81;;;13.80;66.94
55347;BME280;41218;55.700;38.270;2023-07-31T00:42:48;99051.59;;;13.79;67.27
55347;BME280;41218;55.700;38.270;2023-07-31T00:47:48;99031.50;;;13.61;67.14
55347;BME280;41218;55.700;38.270;2023-07-31T00:52:49;99054.47;;;13.69;67.35
55347;BME280;41218;55.700;38.270;2023-07-31T00:57:50;99061.19;;;13.68;67.00
55347;BME280;41218;55.700;38.270;2023-07-31T01:02:53;99051.75;;;13.58;67.02
55347;BME280;41218;55.700;38.270;2023-07-31T01:08:22;99041.09;;;13.53;66.94
55347;BME280;41218;55.700;38.270;2023-07-31T01:13:25;99069.16;;;13.66;67.06
55347;BME280;41218;55.700;38.270;2023-07-31T01:18:25;99065.25;;;13.52;66.89
55347;BME280;41218;55.700;38.270;2023-07-31T01:23:40;99061.72;;;13.48;67.15
55347;BME280;41218;55.700;38.270;2023-07-31T01:29:02;99057.41;;;13.43;67.24
55347;BME280;41218;55.700;38.270;2023-07-31T01:34:04;99054.69;;;13.33;67.27
55347;BME280;41218;55.700;38.270;2023-07-31T01:39:06;99058.25;;;13.33;67.10
55347;BME280;41218;55.700;38.270;2023-07-31T01:44:06;99061.03;;;13.33;67.20
55347;BME280;41218;55.700;38.270;2023-07-31T01:49:07;99064.59;;;13.27;67.33
55347;BME280;41218;55.700;38.270;2023-07-31T01:54:08;99078.50;;;13.30;67.34
55347;BME280;41218;55.700;38.270;2023-07-31T01:59:08;99078.88;;;13.25;67.52
55347;BME280;41218;55.700;38.270;2023-07-31T02:04:09;99072.16;;;13.22;67.80
55347;BME280;41218;55.700;38.270;2023-07-31T02:09:09;99066.63;;;13.19;67.55
55347;BME280;41218;55.700;38.270;2023-07-31T02:14:10;99065.84;;;13.18;67.55
55347;BME280;41218;55.700;38.270;2023-07-31T02:19:10;99063.06;;;13.15;67.60
55347;BME280;41218;55.700;38.270;2023-07-31T02:24:11;99064.69;;;13.12;67.67
55347;BME280;41218;55.700;38.270;2023-07-31T02:29:11;99075.78;;;13.16;67.68
55347;BME280;41218;55.700;38.270;2023-07-31T02:34:12;99074.19;;;13.11;67.72
55347;BME280;41218;55.700;38.270;2023-07-31T02:39:12;99054.75;;;13.11;67.78
55347;BME280;41218;55.700;38.270;2023-07-31T02:44:13;99062.28;;;13.14;67.83
55347;BME280;41218;55.700;38.270;2023-07-31T02:49:14;99069.78;;;13.25;67.82
55347;BME280;41218;55.700;38.270;2023-07-31T02:54:15;99063.06;;;13.18;67.75
55347;BME280;41218;55.700;38.270;2023-07-31T02:59:16;99065.47;;;13.16;67.83
55347;BME280;41218;55.700;38.270;2023-07-31T03:04:16;99070.94;;;13.27;67.88
55347;BME280;41218;55.700;38.270;2023-07-31T03:09:17;99064.63;;;13.19;68.29
55347;BME280;41218;55.700;38.270;2023-07-31T03:14:17;99050.81;;;13.16;68.37
55347;BME280;41218;55.700;38.270;2023-07-31T03:19:18;99059.09;;;13.19;68.53
55347;BME280;41218;55.700;38.270;2023-07-31T03:24:18;99060.63;;;13.28;68.72
55347;BME280;41218;55.700;38.270;2023-07-31T03:29:19;99060.22;;;13.36;69.00
55347;BME280;41218;55.700;38.270;2023-07-31T03:34:19;99060.16;;;13.43;69.82
55347;BME280;41218;55.700;38.270;2023-07-31T03:39:20;99062.94;;;13.47;70.13
55347;BME280;41218;55.700;38.270;2023-07-31T03:44:21;99070.00;;;13.59;70.54
55347;BME280;41218;55.700;38.270;2023-07-31T03:49:21;99077.44;;;13.73;70.61
55347;BME280;41218;55.700;38.270;2023-07-31T03:54:22;99065.84;;;13.85;71.24
55347;BME280;41218;55.700;38.270;2023-07-31T03:59:22;99062.13;;;13.99;71.47
55347;BME280;41218;55.700;38.270;2023-07-31T04:04:23;99049.75;;;14.11;71.75
55347;BME280;41218;55.700;38.270;2023-07-31T04:09:24;99055.13;;;14.29;72.18
55347;BME280;41218;55.700;38.270;2023-07-31T04:14:24;99072.38;;;14.51;72.30
55347;BME280;41218;55.700;38.270;2023-07-31T04:19:25;99072.94;;;14.76;72.44
55347;BME280;41218;55.700;38.270;2023-07-31T04:24:26;99061.91;;;15.00;72.65
55347;BME280;41218;55.700;38.270;2023-07-31T04:29:26;99063.66;;;15.21;72.83
55347;BME280;41218;55.700;38.270;2023-07-31T04:34:28;99066.50;;;15.45;72.53
55347;BME280;41218;55.700;38.270;2023-07-31T04:39:28;99072.97;;;15.65;72.57
55347;BME280;41218;55.700;38.270;2023-07-31T04:44:29;99077.41;;;15.90;72.24
55347;BME280;41218;55.700;38.270;2023-07-31T04:49:31;99067.53;;;16.09;72.16
55347;BME280;41218;55.700;38.270;2023-07-31T04:54:31;99080.63;;;16.35;71.97
55347;BME280;41218;55.700;38.270;2023-07-31T04:59:32;99082.69;;;16.55;71.62
55347;BME280;41218;55.700;38.270;2023-07-31T05:04:32;99078.25;;;16.77;71.38
55347;BME280;41218;55.700;38.270;2023-07-31T05:09:33;99074.78;;;16.93;70.74
55347;BME280;41218;55.700;38.270;2023-07-31T05:14:33;99084.66;;;17.18;70.46
55347;BME280;41218;55.700;38.270;2023-07-31T05:19:34;99088.13;;;17.42;69.79
55347;BME280;41218;55.700;38.270;2023-07-31T05:24:34;99090.31;;;17.51;69.11
55347;BME280;41218;55.700;38.270;2023-07-31T05:29:35;99093.78;;;17.75;68.82
55347;BME280;41218;55.700;38.270;2023-07-31T05:34:35;99100.28;;;17.88;68.45
55347;BME280;41218;55.700;38.270;2023-07-31T05:39:36;99105.72;;;18.12;68.29
55347;BME280;41218;55.700;38.270;2023-07-31T05:44:36;99097.50;;;18.21;67.22
55347;BME280;41218;55.700;38.270;2023-07-31T05:49:36;99108.47;;;18.45;67.18
55347;BME280;41218;55.700;38.270;2023-07-31T05:54:37;99103.06;;;18.54;66.42
55347;BME280;41218;55.700;38.270;2023-07-31T05:59:37;99108.00;;;18.79;66.22
55347;BME280;41218;55.700;38.270;2023-07-31T06:04:38;99091.38;;;18.88;64.87
55347;BME280;41218;55.700;38.270;2023-07-31T06:09:38;99100.97;;;19.16;64.89
55347;BME280;41218;55.700;38.270;2023-07-31T06:14:39;99099.78;;;19.30;64.21
55347;BME280;41218;55.700;38.270;2023-07-31T06:19:39;99079.69;;;19.32;63.53
55347;BME280;41218;55.700;38.270;2023-07-31T06:24:40;99105.63;;;19.61;62.97
55347;BME280;41218;55.700;38.270;2023-07-31T06:29:42;99102.31;;;19.79;62.49
55347;BME280;41218;55.700;38.270;2023-07-31T06:34:42;99108.25;;;19.94;61.60
55347;BME280;41218;55.700;38.270;2023-07-31T06:39:43;99102.41;;;20.01;60.57
55347;BME280;41218;55.700;38.270;2023-07-31T06:44:43;99094.75;;;20.15;60.04
55347;BME280;41218;55.700;38.270;2023-07-31T06:49:44;99106.16;;;20.33;59.62
55347;BME280;41218;55.700;38.270;2023-07-31T06:55:00;99096.75;;;20.40;58.34
55347;BME280;41218;55.700;38.270;2023-07-31T07:00:02;99092.31;;;20.52;58.72
55347;BME280;41218;55.700;38.270;2023-07-31T07:05:04;99096.47;;;20.60;58.05
55347;BME280;41218;55.700;38.270;2023-07-31T07:10:05;99111.91;;;20.77;57.08
55347;BME280;41218;55.700;38.270;2023-07-31T07:15:29;99116.22;;;20.91;56.24
55347;BME280;41218;55.700;38.270;2023-07-31T07:20:29;99109.69;;;20.94;55.64
55347;BME280;41218;55.700;38.270;2023-07-31T07:25:30;99101.00;;;21.01;55.10
55347;BME280;41218;55.700;38.270;2023-07-31T07:30:31;99115.97;;;21.20;54.45
55347;BME280;41218;55.700;38.270;2023-07-31T07:35:35;99126.53;;;21.38;53.20
55347;BME280;41218;55.700;38.270;2023-07-31T07:40:39;99106.31;;;21.44;52.81
55347;BME280;41218;55.700;38.270;2023-07-31T07:45:40;99114.53;;;21.60;52.78
55347;BME280;41218;55.700;38.270;2023-07-31T07:50:40;99124.13;;;21.72;51.97
55347;BME280;41218;55.700;38.270;2023-07-31T07:55:41;99121.31;;;21.81;52.23
55347;BME280;41218;55.700;38.270;2023-07-31T08:00:41;99126.38;;;21.95;51.25
55347;BME280;41218;55.700;38.270;2023-07-31T08:05:42;99120.63;;;21.99;50.39
55347;BME280;41218;55.700;38.270;2023-07-31T08:10:43;99128.66;;;22.19;50.48
55347;BME280;41218;55.700;38.270;2023-07-31T08:15:43;99121.84;;;22.29;50.12
55347;BME280;41218;55.700;38.270;2023-07-31T08:20:44;99131.56;;;22.47;49.62
55347;BME280;41218;55.700;38.270;2023-07-31T08:25:45;99116.72;;;22.55;49.22
55347;BME280;41218;55.700;38.270;2023-07-31T08:30:45;99127.66;;;22.63;48.90
55347;BME280;41218;55.700;38.270;2023-07-31T08:35:46;99125.94;;;22.56;49.13
55347;BME280;41218;55.700;38.270;2023-07-31T08:40:47;99131.25;;;22.54;48.41
55347;BME280;41218;55.700;38.270;2023-07-31T08:45:47;99131.59;;;22.65;48.45
55347;BME280;41218;55.700;38.270;2023-07-31T08:50:48;99130.34;;;22.75;47.26
55347;BME280;41218;55.700;38.270;2023-07-31T08:55:49;99137.88;;;22.88;47.48
55347;BME280;41218;55.700;38.270;2023-07-31T09:00:50;99142.09;;;22.92;47.66
55347;BME280;41218;55.700;38.270;2023-07-31T09:05:53;99127.06;;;22.86;46.84
55347;BME280;41218;55.700;38.270;2023-07-31T09:10:53;99135.69;;;22.92;46.86
55347;BME280;41218;55.700;38.270;2023-07-31T09:15:55;99141.16;;;22.86;47.21
55347;BME280;41218;55.700;38.270;2023-07-31T09:21:05;99133.03;;;22.97;46.34
55347;BME280;41218;55.700;38.270;2023-07-31T09:26:06;99126.13;;;22.98;46.30
55347;BME280;41218;55.700;38.270;2023-07-31T09:31:07;99133.81;;;23.07;46.36
55347;BME280;41218;55.700;38.270;2023-07-31T09:36:07;99144.63;;;23.09;45.68
55347;BME280;41218;55.700;38.270;2023-07-31T09:41:08;99128.31;;;23.13;44.93
55347;BME280;41218;55.700;38.270;2023-07-31T09:46:13;99138.03;;;23.30;44.34
55347;BME280;41218;55.700;38.270;2023-07-31T09:51:15;99149.47;;;23.36;45.37
55347;BME280;41218;55.700;38.270;2023-07-31T09:56:16;99136.00;;;23.22;45.17
55347;BME280;41218;55.700;38.270;2023-07-31T10:01:18;99138.81;;;23.12;46.03
55347;BME280;41218;55.700;38.270;2023-07-31T10:06:19;99135.22;;;23.21;45.51
55347;BME280;41218;55.700;38.270;2023-07-31T10:11:20;99131.47;;;23.24;45.17
55347;BME280;41218;55.700;38.270;2023-07-31T10:16:22;99141.97;;;23.24;45.52
55347;BME280;41218;55.700;38.270;2023-07-31T10:21:23;99138.84;;;23.22;45.98
55347;BME280;41218;55.700;38.270;2023-07-31T10:26:24;99144.44;;;23.40;45.69
55347;BME280;41218;55.700;38.270;2023-07-31T10:31:27;99137.53;;;23.50;44.52
55347;BME280;41218;55.700;38.270;2023-07-31T10:36:28;99127.63;;;23.64;44.78
55347;BME280;41218;55.700;38.270;2023-07-31T10:41:30;99136.03;;;23.83;43.67
55347;BME280;41218;55.700;38.270;2023-07-31T10:46:32;99133.38;;;23.79;43.31
55347;BME280;41218;55.700;38.270;2023-07-31T10:51:34;99135.84;;;23.86;43.07
55347;BME280;41218;55.700;38.270;2023-07-31T10:56:37;99137.22;;;24.00;42.62
55347;BME280;41218;55.700;38.270;2023-07-31T11:01:55;99120.41;;;24.06;42.22
55347;BME280;41218;55.700;38.270;2023-07-31T11:07:02;99123.97;;;24.15;43.32
55347;BME280;41218;55.700;38.270;2023-07-31T11:12:05;99113.59;;;24.22;42.76
55347;BME280;41218;55.700;38.270;2023-07-31T11:17:07;99120.75;;;24.32;42.88
55347;BME280;41218;55.700;38.270;2023-07-31T11:22:07;99113.16;;;24.38;42.83
55347;BME280;41218;55.700;38.270;2023-07-31T11:27:08;99103.06;;;24.46;42.75
55347;BME280;41218;55.700;38.270;2023-07-31T11:32:16;99118.72;;;24.56;41.53
55347;BME280;41218;55.700;38.270;2023-07-31T11:37:17;99113.78;;;24.66;41.92
55347;BME280;41218;55.700;38.270;2023-07-31T11:42:18;99100.63;;;24.63;42.35
55347;BME280;41218;55.700;38.270;2023-07-31T11:47:19;99111.09;;;24.72;41.53
55347;BME280;41218;55.700;38.270;2023-07-31T11:52:20;99105.81;;;24.79;41.91
55347;BME280;41218;55.700;38.270;2023-07-31T11:57:21;99109.44;;;24.80;42.02
55347;BME280;41218;55.700;38.270;2023-07-31T12:02:22;99113.41;;;24.73;41.59
55347;BME280;41218;55.700;38.270;2023-07-31T12:07:24;99123.53;;;24.65;41.86
55347;BME280;41218;55.700;38.270;2023-07-31T12:12:25;99116.44;;;24.46;42.06
55347;BME280;41218;55.700;38.270;2023-07-31T12:17:26;99129.03;;;24.35;42.81
55347;BME280;41218;55.700;38.270;2023-07-31T12:22:26;99125.97;;;24.24;44.09
55347;BME280;41218;55.700;38.270;2023-07-31T12:27:32;99118.84;;;24.05;46.30
55347;BME280;41218;55.700;38.270;2023-07-31T12:32:33;99122.50;;;23.96;47.07
55347;BME280;41218;55.700;38.270;2023-07-31T12:37:33;99126.13;;;23.87;47.82
55347;BME280;41218;55.700;38.270;2023-07-31T12:42:34;99143.69;;;23.91;48.70
55347;BME280;41218;55.700;38.270;2023-07-31T12:47:34;99132.13;;;23.80;49.44
55347;BME280;41218;55.700;38.270;2023-07-31T12:52:35;99145.13;;;23.77;50.44
55347;BME280;41218;55.700;38.270;2023-07-31T12:57:36;99150.47;;;23.85;50.69
55347;BME280;41218;55.700;38.270;2023-07-31T13:02:36;99139.59;;;23.92;49.87
55347;BME280;41218;55.700;38.270;2023-07-31T13:07:37;99142.41;;;23.92;48.84
55347;BME280;41218;55.700;38.270;2023-07-31T13:12:39;99134.22;;;24.04;47.92
55347;BME280;41218;55.700;38.270;2023-07-31T13:17:39;99135.44;;;24.12;47.21
55347;BME280;41218;55.700;38.270;2023-07-31T13:22:40;99140.78;;;24.10;47.02
55347;BME280;41218;55.700;38.270;2023-07-31T13:27:40;99139.56;;;24.02;47.61
55347;BME280;41218;55.700;38.270;2023-07-31T13:32:41;99136.91;;;23.98;47.42
55347;BME280;41218;55.700;38.270;2023-07-31T13:37:41;99128.97;;;23.87;48.03
55347;BME280;41218;55.700;38.270;2023-07-31T13:42:42;99131.78;;;23.87;48.05
55347;BME280;41218;55.700;38.270;2023-07-31T13:47:42;99133.84;;;23.87;48.50
55347;BME280;41218;55.700;38.270;2023-07-31T13:52:43;99136.16;;;23.88;48.80
55347;BME280;41218;55.700;38.270;2023-07-31T13:57:43;99130.22;;;23.86;49.22
55347;BME280;41218;55.700;38.270;2023-07-31T14:02:44;99125.06;;;23.85;49.83
55347;BME280;41218;55.700;38.270;2023-07-31T14:07:44;99132.25;;;23.86;50.31
55347;BME280;41218;55.700;38.270;2023-07-31T14:12:45;99138.69;;;23.86;50.45
55347;BME280;41218;55.700;38.270;2023-07-31T14:17:46;99125.69;;;23.79;51.29
55347;BME280;41218;55.700;38.270;2023-07-31T14:22:46;99122.56;;;23.77;52.01
55347;BME280;41218;55.700;38.270;2023-07-31T14:27:47;99137.59;;;23.84;52.36
55347;BME280;41218;55.700;38.270;2023-07-31T14:32:47;99128.22;;;23.77;51.84
55347;BME280;41218;55.700;38.270;2023-07-31T14:37:48;99129.78;;;23.78;51.89
55347;BME280;41218;55.700;38.270;2023-07-31T14:42:48;99121.00;;;23.76;52.19
55347;BME280;41218;55.700;38.270;2023-07-31T14:47:49;99130.88;;;23.81;52.57
55347;BME280;41218;55.700;38.270;2023-07-31T14:52:49;99120.66;;;23.84;52.08
55347;BME280;41218;55.700;38.270;2023-07-31T14:57:50;99112.03;;;23.87;52.92
55347;BME280;41218;55.700;38.270;2023-07-31T15:02:50;99104.19;;;23.82;52.01
55347;BME280;41218;55.700;38.270;2023-07-31T15:07:51;99118.91;;;23.86;51.63
55347;BME280;41218;55.700;38.270;2023-07-31T15:12:52;99129.59;;;23.82;51.97
55347;BME280;41218;55.700;38.270;2023-07-31T15:17:52;99126.50;;;23.71;51.77
55347;BME280;41218;55.700;38.270;2023-07-31T15:22:53;99138.09;;;23.73;51.83
55347;BME280;41218;55.700;38.270;2023-07-31T15:27:54;99143.09;;;23.69;50.95
55347;BME280;41218;55.700;38.270;2023-07-31T15:32:54;99152.19;;;23.64;50.51
55347;BME280;41218;55.700;38.270;2023-07-31T15:37:55;99151.59;;;23.59;50.65
55347;BME280;41218;55.700;38.270;2023-07-31T15:42:55;99148.31;;;23.52;50.60
55347;BME280;41218;55.700;38.270;2023-07-31T15:47:56;99154.28;;;23.45;50.66
55347;BME280;41218;55.700;38.270;2023-07-31T15:52:56;99153.53;;;23.35;50.96
55347;BME280;41218;55.700;38.270;2023-07-31T15:57:57;99149.16;;;23.25;51.46
55347;BME280;41218;55.700;38.270;2023-07-31T16:02:58;99148.22;;;23.09;51.82
55347;BME280;41218;55.700;38.270;2023-07-31T16:07:58;99144.94;;;23.02;52.76
55347;BME280;41218;55.700;38.270;2023-07-31T16:12:59;99156.50;;;22.94;53.27
55347;BME280;41218;55.700;38.270;2023-07-31T16:17:59;99153.53;;;22.79;53.69
55347;BME280;41218;55.700;38.270;2023-07-31T16:23:00;99148.97;;;22.73;53.97
55347;BME280;41218;55.700;38.270;2023-07-31T16:28:01;99149.44;;;22.71;54.52
55347;BME280;41218;55.700;38.270;2023-07-31T16:33:01;99153.19;;;22.68;54.82
55347;BME280;41218;55.700;38.270;2023-07-31T16:38:02;99151.91;;;22.60;55.01
55347;BME280;41218;55.700;38.270;2023-07-31T16:43:02;99164.91;;;22.57;55.60
55347;BME280;41218;55.700;38.270;2023-07-31T16:48:03;99170.84;;;22.50;56.07
55347;BME280;41218;55.700;38.270;2023-07-31T16:53:04;99164.88;;;22.39;56.51
55347;BME280;41218;55.700;38.270;2023-07-31T16:58:04;99170.47;;;22.30;56.58
55347;BME280;41218;55.700;38.270;2023-07-31T17:03:05;99176.38;;;22.23;57.03
55347;BME280;41218;55.700;38.270;2023-07-31T17:08:06;99178.22;;;22.16;57.37
55347;BME280;41218;55.700;38.270;2023-07-31T17:13:06;99189.75;;;22.09;57.58
55347;BME280;41218;55.700;38.270;2023-07-31T17:18:07;99177.19;;;21.92;57.99
55347;BME280;41218;55.700;38.270;2023-07-31T17:23:09;99194.84;;;21.92;58.16
55347;BME280;41218;55.700;38.270;2023-07-31T17:28:09;99201.34;;;21.80;58.28
55347;BME280;41218;55.700;38.270;2023-07-31T17:33:14;99213.31;;;21.71;58.57
55347;BME280;41218;55.700;38.270;2023-07-31T17:38:14;99221.38;;;21.60;58.90
55347;BME280;41218;55.700;38.270;2023-07-31T17:43:15;99215.16;;;21.43;58.88
55347;BME280;41218;55.700;38.270;2023-07-31T17:48:16;99224.59;;;21.36;59.27
55347;BME280;41218;55.700;38.270;2023-07-31T17:53:16;99226.69;;;21.23;59.53
55347;BME280;41218;55.700;38.270;2023-07-31T17:58:17;99229.88;;;21.12;59.60
55347;BME280;41218;55.700;38.270;2023-07-31T18:03:17;99241.81;;;21.04;59.79
55347;BME280;41218;55.700;38.270;2023-07-31T18:08:18;99237.47;;;20.90;60.02
55347;BME280;41218;55.700;38.270;2023-07-31T18:13:21;99241.44;;;20.79;59.96
55347;BME280;41218;55.700;38.270;2023-07-31T18:18:22;99247.16;;;20.76;60.22
55347;BME280;41218;55.700;38.270;2023-07-31T18:23:22;99253.91;;;20.66;60.25
55347;BME280;41218;55.700;38.270;2023-07-31T18:28:23;99252.78;;;20.50;60.35
55347;BME280;41218;55.700;38.270;2023-07-31T18:33:24;99262.69;;;20.42;60.50
55347;BME280;41218;55.700;38.270;2023-07-31T18:38:26;99256.94;;;20.33;60.60
55347;BME280;41218;55.700;38.270;2023-07-31T18:43:32;99259.41;;;20.18;60.54
55347;BME280;41218;55.700;38.270;2023-07-31T18:48:32;99256.47;;;20.09;60.98
55347;BME280;41218;55.700;38.270;2023-07-31T18:53:33;99265.88;;;20.02;60.88
55347;BME280;41218;55.700;38.270;2023-07-31T18:58:35;99250.59;;;19.90;60.84
55347;BME280;41218;55.700;38.270;2023-07-31T19:03:35;99258.91;;;19.81;61.16
55347;BME280;41218;55.700;38.270;2023-07-31T19:08:37;99258.81;;;19.68;61.08
55347;BME280;41218;55.700;38.270;2023-07-31T19:13:39;99255.56;;;19.57;61.38
55347;BME280;41218;55.700;38.270;2023-07-31T19:18:40;99254.28;;;19.45;61.31
55347;BME280;41218;55.700;38.270;2023-07-31T19:23:41;99260.53;;;19.36;61.38
55347;BME280;41218;55.700;38.270;2023-07-31T19:28:41;99260.34;;;19.27;61.56
55347;BME280;41218;55.700;38.270;2023-07-31T19:33:42;99261.94;;;19.12;62.23
55347;BME280;41218;55.700;38.270;2023-07-31T19:38:43;99259.00;;;19.02;61.89
55347;BME280;41218;55.700;38.270;2023-07-31T19:43:43;99268.03;;;18.94;61.87
55347;BME280;41218;55.700;38.270;2023-07-31T19:48:44;99272.59;;;18.88;61.94
55347;BME280;41218;55.700;38.270;2023-07-31T19:53:44;99274.31;;;18.81;62.09
55347;BME280;41218;55.700;38.270;2023-07-31T19:58:45;99269.84;;;18.68;62.05
55347;BME280;41218;55.700;38.270;2023-07-31T20:03:45;99276.72;;;18.63;62.33
55347;BME280;41218;55.700;38.270;2023-07-31T20:08:46;99268.59;;;18.52;62.37
55347;BME280;41218;55.700;38.270;2023-07-31T20:13:46;99297.91;;;18.64;62.20
55347;BME280;41218;55.700;38.270;2023-07-31T20:18:48;99286.00;;;18.44;62.15
55347;BME280;41218;55.700;38.270;2023-07-31T20:23:50;99282.66;;;18.32;62.28
55347;BME280;41218;55.700;38.270;2023-07-31T20:28:50;99284.03;;;18.24;62.52
55347;BME280;41218;55.700;38.270;2023-07-31T20:33:51;99282.59;;;18.16;62.73
55347;BME280;41218;55.700;38.270;2023-07-31T20:38:51;99298.00;;;18.24;62.45
55347;BME280;41218;55.700;38.270;2023-07-31T20:43:52;99276.47;;;18.05;62.69
55347;BME280;41218;55.700;38.270;2023-07-31T20:48:52;99291.53;;;18.11;62.52
55347;BME280;41218;55.700;38.270;2023-07-31T20:53:53;99283.59;;;17.89;62.69
55347;BME280;41218;55.700;38.270;2023-07-31T20:58:53;99287.09;;;17.93;62.61
55347;BME280;41218;55.700;38.270;2023-07-31T21:03:54;99285.06;;;17.74;62.68
55347;BME280;41218;55.700;38.270;2023-07-31T21:08:54;99294.16;;;17.78;62.67
55347;BME280;41218;55.700;38.270;2023-07-31T21:13:55;99287.72;;;17.61;62.86
55347;BME280;41218;55.700;38.270;2023-07-31T21:18:57;99289.53;;;17.48;62.90
55347;BME280;41218;55.700;38.270;2023-07-31T21:23:58;99302.97;;;17.56;62.96
55347;BME280;41218;55.700;38.270;2023-07-31T21:28:59;99286.53;;;17.38;63.01
55347;BME280;41218;55.700;38.270;2023-07-31T21:34:01;99274.03;;;17.23;63.44
55347;BME280;41218;55.700;38.270;2023-07-31T21:39:02;99288.63;;;17.34;63.26
55347;BME280;41218;55.700;38.270;2023-07-31T21:44:02;99279.00;;;17.15;63.23
55347;BME280;41218;55.700;38.270;2023-07-31T21:49:03;99288.00;;;17.23;63.25
55347;BME280;41218;55.700;38.270;2023-07-31T21:54:04;99268.00;;;17.05;63.50
55347;BME280;41218;55.700;38.270;2023-07-31T21:59:04;99283.03;;;17.11;63.39
55347;BME280;41218;55.700;38.270;2023-07-31T22:04:04;99283.34;;;16.93;63.48
55347;BME280;41218;55.700;38.270;2023-07-31T22:09:05;99287.22;;;16.99;63.65
55347;BME280;41218;55.700;38.270;2023-07-31T22:14:05;99285.50;;;16.85;63.49
55347;BME280;41218;55.700;38.270;2023-07-31T22:19:06;99285.41;;;16.89;63.47
55347;BME280;41218;55.700;38.270;2023-07-31T22:24:06;99273.78;;;16.67;63.85
55347;BME280;41218;55.700;38.270;2023-07-31T22:29:09;99283.41;;;16.62;63.73
55347;BME280;41218;55.700;38.270;2023-07-31T22:34:10;99283.09;;;16.56;63.99
55347;BME280;41218;55.700;38.270;2023-07-31T22:39:10;99279.38;;;16.67;63.88
55347;BME280;41218;55.700;38.270;2023-07-31T22:44:11;99280.44;;;16.49;63.94
55347;BME280;41218;55.700;38.270;2023-07-31T22:49:11;99286.06;;;16.46;64.33
55347;BME280;41218;55.700;38.270;2023-07-31T22:54:12;99288.84;;;16.46;64.28
55347;BME280;41218;55.700;38.270;2023-07-31T22:59:12;99293.16;;;16.50;64.33
55347;BME280;41218;55.700;38.270;2023-07-31T23:04:13;99279.84;;;16.34;64.24
55347;BME280;41218;55.700;38.270;2023-07-31T23:09:13;99289.69;;;16.42;64.33
55347;BME280;41218;55.700;38.270;2023-07-31T23:14:14;99279.94;;;16.27;64.29
55347;BME280;41218;55.700;38.270;2023-07-31T23:19:14;99294.38;;;16.22;64.53
55347;BME280;41218;55.700;38.270;2023-07-31T23:24:15;99292.47;;;16.15;64.55
55347;BME280;41218;55.700;38.270;2023-07-31T23:29:15;99301.66;;;16.12;64.53
55347;BME280;41218;55.700;38.270;2023-07-31T23:34:16;99296.09;;;16.12;64.76
55347;BME280;41218;55.700;38.270;2023-07-31T23:39:16;99296.41;;;16.18;64.78
55347;BME280;41218;55.700;38.270;2023-07-31T23:44:17;99292.97;;;16.07;64.82
55347;BME280;41218;55.700;38.270;2023-07-31T23:49:17;99286.00;;;15.91;64.56
55347;BME280;41218;55.700;38.270;2023-07-31T23:54:18;99290.75;;;15.94;64.97
55347;BME280;41218;55.700;38.270;2023-07-31T23:59:18;99289.25;;;15.86;64.96
